sensor_id;sensor_type;location;lat;lon;timestamp;P1;durP1;ratioP1;P2;durP2;ratioP2
6951;SDS011;3515;50.138;8.502;2022-08-06T00:00:11;10;;;4;;
6951;SDS011;3515;50.138;8.502;2022-08-06T00:02:36;10;;;4;;
6951;SDS011;3515;50.138;8.502;2022-08-06T00:05:03;10;;;4;;
6951;SDS011;3515;50.138;8.502;2022-08-06T00:07:27;9;;;4;;
6951;SDS011;3515;50.138;8.502;2022-08-06T00:09:52;10;;;4;;
6951;SDS011;3515;50.138;8.502;2022-08-06T00:12:18;9;;;4;;
6951;SDS011;3515;50.138;8.502;2022-08-06T00:14:43;9;;;4;;
6951;SDS011;3515;50.138;8.502;2022-08-06T00:17:08;9;;;4;;
6951;SDS011;3515;50.138;8.502;2022-08-06T00:19:33;9;;;4;;
6951;SDS011;3515;50.138;8.502;2022-08-06T00:21:59;9;;;4;;
6951;SDS011;3515;50.138;8.502;2022-08-06T00:24:24;8;;;4;;
6951;SDS011;3515;50.138;8.502;2022-08-06T00:26:52;8;;;4;;
6951;SDS011;3515;50.138;8.502;2022-08-06T00:29:17;9;;;4;;
6951;SDS011;3515;50.138;8.502;2022-08-06T00:31:43;9;;;4;;
6951;SDS011;3515;50.138;8.502;2022-08-06T00:34:08;9;;;4;;
6951;SDS011;3515;50.138;8.502;2022-08-06T00:36:33;13;;;6;;
6951;SDS011;3515;50.138;8.502;2022-08-06T00:39:00;13;;;7;;
6951;SDS011;3515;50.138;8.502;2022-08-06T00:41:24;13;;;7;;
6951;SDS011;3515;50.138;8.502;2022-08-06T00:43:49;13;;;7;;
6951;SDS011;3515;50.138;8.502;2022-08-06T00:46:14;14;;;7;;
6951;SDS011;3515;50.138;8.502;2022-08-06T00:48:40;10;;;5;;
6951;SDS011;3515;50.138;8.502;2022-08-06T00:51:05;10;;;4;;
6951;SDS011;3515;50.138;8.502;2022-08-06T00:53:30;13;;;6;;
6951;SDS011;3515;50.138;8.502;2022-08-06T00:55:56;10;;;4;;
6951;SDS011;3515;50.138;8.502;2022-08-06T00:58:21;9;;;4;;
6951;SDS011;3515;50.138;8.502;2022-08-06T01:00:46;9;;;4;;
6951;SDS011;3515;50.138;8.502;2022-08-06T01:03:11;9;;;4;;
6951;SDS011;3515;50.138;8.502;2022-08-06T01:05:37;9;;;4;;
6951;SDS011;3515;50.138;8.502;2022-08-06T01:08:02;9;;;4;;
6951;SDS011;3515;50.138;8.502;2022-08-06T01:10:27;9;;;4;;
6951;SDS011;3515;50.138;8.502;2022-08-06T01:12:52;5;;;1;;
6951;SDS011;3515;50.138;8.502;2022-08-06T01:15:18;4;;;1;;
6951;SDS011;3515;50.138;8.502;2022-08-06T01:17:46;4;;;1;;
6951;SDS011;3515;50.138;8.502;2022-08-06T01:20:13;4;;;1;;
6951;SDS011;3515;50.138;8.502;2022-08-06T01:22:39;4;;;1;;
6951;SDS011;3515;50.138;8.502;2022-08-06T01:25:07;4;;;1;;
6951;SDS011;3515;50.138;8.502;2022-08-06T01:27:33;3;;;1;;
6951;SDS011;3515;50.138;8.502;2022-08-06T01:29:50;4;;;1;;
6951;SDS011;3515;50.138;8.502;2022-08-06T01:32:15;4;;;1;;
6951;SDS011;3515;50.138;8.502;2022-08-06T01:34:40;5;;;1;;
6951;SDS011;3515;50.138;8.502;2022-08-06T01:37:07;5;;;0;;
6951;SDS011;3515;50.138;8.502;2022-08-06T01:39:30;8;;;2;;
6951;SDS011;3515;50.138;8.502;2022-08-06T01:41:55;8;;;2;;
6951;SDS011;3515;50.138;8.502;2022-08-06T01:44:22;8;;;2;;
6951;SDS011;3515;50.138;8.502;2022-08-06T01:46:48;11;;;4;;
6951;SDS011;3515;50.138;8.502;2022-08-06T01:49:11;10;;;4;;
6951;SDS011;3515;50.138;8.502;2022-08-06T01:51:37;11;;;4;;
6951;SDS011;3515;50.138;8.502;2022-08-06T01:54:03;10;;;4;;
6951;SDS011;3515;50.138;8.502;2022-08-06T01:56:27;10;;;4;;
6951;SDS011;3515;50.138;8.502;2022-08-06T01:58:53;7;;;3;;
6951;SDS011;3515;50.138;8.502;2022-08-06T02:01:18;7;;;2;;
6951;SDS011;3515;50.138;8.502;2022-08-06T02:03:43;7;;;2;;
6951;SDS011;3515;50.138;8.502;2022-08-06T02:06:08;4;;;0;;
6951;SDS011;3515;50.138;8.502;2022-08-06T02:08:34;4;;;0;;
6951;SDS011;3515;50.138;8.502;2022-08-06T02:10:59;3;;;0;;
6951;SDS011;3515;50.138;8.502;2022-08-06T02:13:24;3;;;0;;
6951;SDS011;3515;50.138;8.502;2022-08-06T02:15:49;4;;;0;;
6951;SDS011;3515;50.138;8.502;2022-08-06T02:18:15;4;;;0;;
6951;SDS011;3515;50.138;8.502;2022-08-06T02:20:40;4;;;0;;
6951;SDS011;3515;50.138;8.502;2022-08-06T02:23:06;7;;;2;;
6951;SDS011;3515;50.138;8.502;2022-08-06T02:25:30;7;;;2;;
6951;SDS011;3515;50.138;8.502;2022-08-06T02:28:01;7;;;2;;
6951;SDS011;3515;50.138;8.502;2022-08-06T02:30:28;10;;;4;;
6951;SDS011;3515;50.138;8.502;2022-08-06T02:32:51;15;;;6;;
6951;SDS011;3515;50.138;8.502;2022-08-06T02:35:16;14;;;7;;
6951;SDS011;3515;50.138;8.502;2022-08-06T02:37:43;14;;;7;;
6951;SDS011;3515;50.138;8.502;2022-08-06T02:40:08;14;;;7;;
6951;SDS011;3515;50.138;8.502;2022-08-06T02:42:33;12;;;5;;
6951;SDS011;3515;50.138;8.502;2022-08-06T02:44:59;11;;;5;;
6951;SDS011;3515;50.138;8.502;2022-08-06T02:47:25;11;;;5;;
6951;SDS011;3515;50.138;8.502;2022-08-06T02:49:50;8;;;3;;
6951;SDS011;3515;50.138;8.502;2022-08-06T02:52:15;3;;;1;;
6951;SDS011;3515;50.138;8.502;2022-08-06T02:54:40;3;;;0;;
6951;SDS011;3515;50.138;8.502;2022-08-06T02:57:04;3;;;0;;
6951;SDS011;3515;50.138;8.502;2022-08-06T02:59:30;3;;;0;;
6951;SDS011;3515;50.138;8.502;2022-08-06T03:01:56;6;;;2;;
6951;SDS011;3515;50.138;8.502;2022-08-06T03:04:20;6;;;2;;
6951;SDS011;3515;50.138;8.502;2022-08-06T03:06:45;6;;;2;;
6951;SDS011;3515;50.138;8.502;2022-08-06T03:09:10;6;;;2;;
6951;SDS011;3515;50.138;8.502;2022-08-06T03:11:36;6;;;2;;
6951;SDS011;3515;50.138;8.502;2022-08-06T03:14:01;6;;;2;;
6951;SDS011;3515;50.138;8.502;2022-08-06T03:16:27;6;;;2;;
6951;SDS011;3515;50.138;8.502;2022-08-06T03:18:52;9;;;4;;
6951;SDS011;3515;50.138;8.502;2022-08-06T03:21:17;6;;;2;;
6951;SDS011;3515;50.138;8.502;2022-08-06T03:23:42;6;;;2;;
6951;SDS011;3515;50.138;8.502;2022-08-06T03:26:07;7;;;2;;
6951;SDS011;3515;50.138;8.502;2022-08-06T03:28:33;7;;;2;;
6951;SDS011;3515;50.138;8.502;2022-08-06T03:30:58;7;;;2;;
6951;SDS011;3515;50.138;8.502;2022-08-06T03:33:23;7;;;2;;
6951;SDS011;3515;50.138;8.502;2022-08-06T03:35:48;7;;;2;;
6951;SDS011;3515;50.138;8.502;2022-08-06T03:38:13;4;;;0;;
6951;SDS011;3515;50.138;8.502;2022-08-06T03:40:39;4;;;0;;
6951;SDS011;3515;50.138;8.502;2022-08-06T03:43:04;4;;;0;;
6951;SDS011;3515;50.138;8.502;2022-08-06T03:45:29;4;;;0;;
6951;SDS011;3515;50.138;8.502;2022-08-06T03:47:55;4;;;0;;
6951;SDS011;3515;50.138;8.502;2022-08-06T03:50:20;4;;;0;;
6951;SDS011;3515;50.138;8.502;2022-08-06T03:52:46;3;;;0;;
6951;SDS011;3515;50.138;8.502;2022-08-06T03:55:12;6;;;2;;
6951;SDS011;3515;50.138;8.502;2022-08-06T03:57:38;6;;;2;;
6951;SDS011;3515;50.138;8.502;2022-08-06T04:00:02;6;;;2;;
6951;SDS011;3515;50.138;8.502;2022-08-06T04:02:27;9;;;4;;
6951;SDS011;3515;50.138;8.502;2022-08-06T04:04:52;10;;;4;;
6951;SDS011;3515;50.138;8.502;2022-08-06T04:07:17;10;;;4;;
6951;SDS011;3515;50.138;8.502;2022-08-06T04:09:42;9;;;4;;
6951;SDS011;3515;50.138;8.502;2022-08-06T04:12:08;10;;;4;;
6951;SDS011;3515;50.138;8.502;2022-08-06T04:14:32;7;;;3;;
6951;SDS011;3515;50.138;8.502;2022-08-06T04:16:58;7;;;3;;
6951;SDS011;3515;50.138;8.502;2022-08-06T04:19:24;7;;;2;;
6951;SDS011;3515;50.138;8.502;2022-08-06T04:21:49;4;;;1;;
6951;SDS011;3515;50.138;8.502;2022-08-06T04:24:14;4;;;0;;
6951;SDS011;3515;50.138;8.502;2022-08-06T04:26:40;4;;;0;;
6951;SDS011;3515;50.138;8.502;2022-08-06T04:29:05;4;;;0;;
6951;SDS011;3515;50.138;8.502;2022-08-06T04:31:30;4;;;0;;
6951;SDS011;3515;50.138;8.502;2022-08-06T04:33:55;4;;;0;;
6951;SDS011;3515;50.138;8.502;2022-08-06T04:36:21;3;;;0;;
6951;SDS011;3515;50.138;8.502;2022-08-06T04:38:46;3;;;0;;
6951;SDS011;3515;50.138;8.502;2022-08-06T04:41:11;3;;;0;;
6951;SDS011;3515;50.138;8.502;2022-08-06T04:43:36;3;;;0;;
6951;SDS011;3515;50.138;8.502;2022-08-06T04:46:02;6;;;2;;
6951;SDS011;3515;50.138;8.502;2022-08-06T04:48:27;6;;;2;;
6951;SDS011;3515;50.138;8.502;2022-08-06T04:50:52;6;;;2;;
6951;SDS011;3515;50.138;8.502;2022-08-06T04:53:18;6;;;2;;
6951;SDS011;3515;50.138;8.502;2022-08-06T04:55:44;9;;;4;;
6951;SDS011;3515;50.138;8.502;2022-08-06T04:58:09;9;;;4;;
6951;SDS011;3515;50.138;8.502;2022-08-06T05:00:36;10;;;4;;
6951;SDS011;3515;50.138;8.502;2022-08-06T05:02:59;10;;;4;;
6951;SDS011;3515;50.138;8.502;2022-08-06T05:05:37;8;;;2;;
6951;SDS011;3515;50.138;8.502;2022-08-06T05:07:54;7;;;2;;
6951;SDS011;3515;50.138;8.502;2022-08-06T05:10:20;7;;;2;;
6951;SDS011;3515;50.138;8.502;2022-08-06T05:12:45;10;;;4;;
6951;SDS011;3515;50.138;8.502;2022-08-06T05:15:11;8;;;2;;
6951;SDS011;3515;50.138;8.502;2022-08-06T05:17:37;12;;;5;;
6951;SDS011;3515;50.138;8.502;2022-08-06T05:20:05;12;;;5;;
6951;SDS011;3515;50.138;8.502;2022-08-06T05:22:28;12;;;5;;
6951;SDS011;3515;50.138;8.502;2022-08-06T05:24:53;12;;;5;;
6951;SDS011;3515;50.138;8.502;2022-08-06T05:27:18;13;;;5;;
6951;SDS011;3515;50.138;8.502;2022-08-06T05:29:44;14;;;5;;
6951;SDS011;3515;50.138;8.502;2022-08-06T05:32:09;11;;;4;;
6951;SDS011;3515;50.138;8.502;2022-08-06T05:34:34;10;;;4;;
6951;SDS011;3515;50.138;8.502;2022-08-06T05:37:00;6;;;1;;
6951;SDS011;3515;50.138;8.502;2022-08-06T05:39:25;6;;;1;;
6951;SDS011;3515;50.138;8.502;2022-08-06T05:41:50;9;;;3;;
6951;SDS011;3515;50.138;8.502;2022-08-06T05:44:15;10;;;3;;
6951;SDS011;3515;50.138;8.502;2022-08-06T05:46:41;10;;;3;;
6951;SDS011;3515;50.138;8.502;2022-08-06T05:49:07;9;;;3;;
6951;SDS011;3515;50.138;8.502;2022-08-06T05:51:34;10;;;3;;
6951;SDS011;3515;50.138;8.502;2022-08-06T05:53:57;9;;;3;;
6951;SDS011;3515;50.138;8.502;2022-08-06T05:56:23;9;;;3;;
6951;SDS011;3515;50.138;8.502;2022-08-06T05:58:49;13;;;6;;
6951;SDS011;3515;50.138;8.502;2022-08-06T06:01:13;11;;;4;;
6951;SDS011;3515;50.138;8.502;2022-08-06T06:03:38;10;;;4;;
6951;SDS011;3515;50.138;8.502;2022-08-06T06:06:03;10;;;4;;
6951;SDS011;3515;50.138;8.502;2022-08-06T06:08:28;9;;;4;;
6951;SDS011;3515;50.138;8.502;2022-08-06T06:10:53;10;;;4;;
6951;SDS011;3515;50.138;8.502;2022-08-06T06:13:20;10;;;5;;
6951;SDS011;3515;50.138;8.502;2022-08-06T06:15:47;11;;;5;;
6951;SDS011;3515;50.138;8.502;2022-08-06T06:18:11;11;;;5;;
6951;SDS011;3515;50.138;8.502;2022-08-06T06:20:37;11;;;5;;
6951;SDS011;3515;50.138;8.502;2022-08-06T06:23:00;11;;;5;;
6951;SDS011;3515;50.138;8.502;2022-08-06T06:25:26;12;;;5;;
6951;SDS011;3515;50.138;8.502;2022-08-06T06:27:52;12;;;5;;
6951;SDS011;3515;50.138;8.502;2022-08-06T06:30:17;16;;;8;;
6951;SDS011;3515;50.138;8.502;2022-08-06T06:32:42;17;;;9;;
6951;SDS011;3515;50.138;8.502;2022-08-06T06:35:13;17;;;9;;
6951;SDS011;3515;50.138;8.502;2022-08-06T06:37:37;14;;;7;;
6951;SDS011;3515;50.138;8.502;2022-08-06T06:40:02;14;;;8;;
6951;SDS011;3515;50.138;8.502;2022-08-06T06:42:23;17;;;9;;
6951;SDS011;3515;50.138;8.502;2022-08-06T06:44:48;19;;;10;;
6951;SDS011;3515;50.138;8.502;2022-08-06T06:47:14;23;;;12;;
6951;SDS011;3515;50.138;8.502;2022-08-06T06:49:39;22;;;12;;
6951;SDS011;3515;50.138;8.502;2022-08-06T06:52:05;26;;;13;;
6951;SDS011;3515;50.138;8.502;2022-08-06T06:54:30;31;;;15;;
6951;SDS011;3515;50.138;8.502;2022-08-06T06:56:54;35;;;17;;
6951;SDS011;3515;50.138;8.502;2022-08-06T06:59:21;39;;;19;;
6951;SDS011;3515;50.138;8.502;2022-08-06T07:01:45;42;;;20;;
6951;SDS011;3515;50.138;8.502;2022-08-06T07:04:09;42;;;21;;
6951;SDS011;3515;50.138;8.502;2022-08-06T07:06:35;43;;;20;;
6951;SDS011;3515;50.138;8.502;2022-08-06T07:09:00;43;;;20;;
6951;SDS011;3515;50.138;8.502;2022-08-06T07:11:25;43;;;20;;
6951;SDS011;3515;50.138;8.502;2022-08-06T07:13:50;44;;;21;;
6951;SDS011;3515;50.138;8.502;2022-08-06T07:16:16;43;;;20;;
6951;SDS011;3515;50.138;8.502;2022-08-06T07:18:41;43;;;20;;
6951;SDS011;3515;50.138;8.502;2022-08-06T07:21:06;44;;;20;;
6951;SDS011;3515;50.138;8.502;2022-08-06T07:23:32;52;;;24;;
6951;SDS011;3515;50.138;8.502;2022-08-06T07:25:57;53;;;24;;
6951;SDS011;3515;50.138;8.502;2022-08-06T07:28:23;54;;;24;;
6951;SDS011;3515;50.138;8.502;2022-08-06T07:30:47;56;;;25;;
6951;SDS011;3515;50.138;8.502;2022-08-06T07:33:13;55;;;25;;
6951;SDS011;3515;50.138;8.502;2022-08-06T07:35:39;65;;;28;;
6951;SDS011;3515;50.138;8.502;2022-08-06T07:38:04;65;;;28;;
6951;SDS011;3515;50.138;8.502;2022-08-06T07:40:30;65;;;28;;
6951;SDS011;3515;50.138;8.502;2022-08-06T07:43:02;57;;;25;;
6951;SDS011;3515;50.138;8.502;2022-08-06T07:45:25;67;;;29;;
6951;SDS011;3515;50.138;8.502;2022-08-06T07:47:50;67;;;29;;
6951;SDS011;3515;50.138;8.502;2022-08-06T07:50:15;66;;;28;;
6951;SDS011;3515;50.138;8.502;2022-08-06T07:52:40;64;;;28;;
6951;SDS011;3515;50.138;8.502;2022-08-06T07:55:07;56;;;24;;
6951;SDS011;3515;50.138;8.502;2022-08-06T07:57:31;57;;;25;;
6951;SDS011;3515;50.138;8.502;2022-08-06T07:59:56;58;;;25;;
6951;SDS011;3515;50.138;8.502;2022-08-06T08:02:22;59;;;25;;
6951;SDS011;3515;50.138;8.502;2022-08-06T08:04:47;52;;;23;;
6951;SDS011;3515;50.138;8.502;2022-08-06T08:07:12;54;;;23;;
6951;SDS011;3515;50.138;8.502;2022-08-06T08:09:37;54;;;23;;
6951;SDS011;3515;50.138;8.502;2022-08-06T08:12:03;55;;;23;;
6951;SDS011;3515;50.138;8.502;2022-08-06T08:14:28;55;;;24;;
6951;SDS011;3515;50.138;8.502;2022-08-06T08:16:53;54;;;23;;
6951;SDS011;3515;50.138;8.502;2022-08-06T08:19:20;52;;;23;;
6951;SDS011;3515;50.138;8.502;2022-08-06T08:21:44;49;;;22;;
6951;SDS011;3515;50.138;8.502;2022-08-06T08:24:09;46;;;21;;
6951;SDS011;3515;50.138;8.502;2022-08-06T08:26:34;42;;;20;;
6951;SDS011;3515;50.138;8.502;2022-08-06T08:29:00;41;;;20;;
6951;SDS011;3515;50.138;8.502;2022-08-06T08:31:25;39;;;20;;
6951;SDS011;3515;50.138;8.502;2022-08-06T08:33:50;36;;;19;;
6951;SDS011;3515;50.138;8.502;2022-08-06T08:36:15;35;;;18;;
6951;SDS011;3515;50.138;8.502;2022-08-06T08:38:41;34;;;18;;
6951;SDS011;3515;50.138;8.502;2022-08-06T08:41:08;34;;;18;;
6951;SDS011;3515;50.138;8.502;2022-08-06T08:43:34;35;;;18;;
6951;SDS011;3515;50.138;8.502;2022-08-06T08:45:57;35;;;19;;
6951;SDS011;3515;50.138;8.502;2022-08-06T08:48:23;36;;;19;;
6951;SDS011;3515;50.138;8.502;2022-08-06T08:50:47;37;;;19;;
6951;SDS011;3515;50.138;8.502;2022-08-06T08:53:13;45;;;22;;
6951;SDS011;3515;50.138;8.502;2022-08-06T08:55:38;46;;;23;;
6951;SDS011;3515;50.138;8.502;2022-08-06T08:58:03;48;;;23;;
6951;SDS011;3515;50.138;8.502;2022-08-06T09:00:28;50;;;24;;
6951;SDS011;3515;50.138;8.502;2022-08-06T09:02:54;54;;;25;;
6951;SDS011;3515;50.138;8.502;2022-08-06T09:05:19;57;;;26;;
6951;SDS011;3515;50.138;8.502;2022-08-06T09:07:44;61;;;28;;
6951;SDS011;3515;50.138;8.502;2022-08-06T09:10:09;65;;;29;;
6951;SDS011;3515;50.138;8.502;2022-08-06T09:12:35;61;;;27;;
6951;SDS011;3515;50.138;8.502;2022-08-06T09:15:00;68;;;30;;
6951;SDS011;3515;50.138;8.502;2022-08-06T09:17:25;71;;;31;;
6951;SDS011;3515;50.138;8.502;2022-08-06T09:19:51;72;;;31;;
6951;SDS011;3515;50.138;8.502;2022-08-06T09:22:16;72;;;30;;
6951;SDS011;3515;50.138;8.502;2022-08-06T09:24:41;70;;;29;;
6951;SDS011;3515;50.138;8.502;2022-08-06T09:27:07;68;;;28;;
6951;SDS011;3515;50.138;8.502;2022-08-06T09:29:32;65;;;27;;
6951;SDS011;3515;50.138;8.502;2022-08-06T09:31:57;65;;;27;;
6951;SDS011;3515;50.138;8.502;2022-08-06T09:34:30;63;;;25;;
6951;SDS011;3515;50.138;8.502;2022-08-06T09:36:48;64;;;26;;
6951;SDS011;3515;50.138;8.502;2022-08-06T09:39:13;65;;;26;;
6951;SDS011;3515;50.138;8.502;2022-08-06T09:41:44;63;;;25;;
6951;SDS011;3515;50.138;8.502;2022-08-06T09:44:09;63;;;24;;
6951;SDS011;3515;50.138;8.502;2022-08-06T09:46:37;64;;;25;;
6951;SDS011;3515;50.138;8.502;2022-08-06T09:48:56;70;;;27;;
6951;SDS011;3515;50.138;8.502;2022-08-06T09:51:20;72;;;28;;
6951;SDS011;3515;50.138;8.502;2022-08-06T09:53:51;71;;;27;;
6951;SDS011;3515;50.138;8.502;2022-08-06T09:56:14;71;;;27;;
6951;SDS011;3515;50.138;8.502;2022-08-06T09:58:35;69;;;26;;
6951;SDS011;3515;50.138;8.502;2022-08-06T10:03:25;74;;;28;;
6951;SDS011;3515;50.138;8.502;2022-08-06T10:08:16;72;;;27;;
6951;SDS011;3515;50.138;8.502;2022-08-06T10:10:44;69;;;26;;
6951;SDS011;3515;50.138;8.502;2022-08-06T10:13:14;70;;;27;;
6951;SDS011;3515;50.138;8.502;2022-08-06T10:15:37;70;;;27;;
6951;SDS011;3515;50.138;8.502;2022-08-06T10:18:02;72;;;28;;
6951;SDS011;3515;50.138;8.502;2022-08-06T10:20:31;74;;;28;;
6951;SDS011;3515;50.138;8.502;2022-08-06T10:22:56;73;;;28;;
6951;SDS011;3515;50.138;8.502;2022-08-06T10:25:22;75;;;29;;
6951;SDS011;3515;50.138;8.502;2022-08-06T10:27:47;76;;;29;;
6951;SDS011;3515;50.138;8.502;2022-08-06T10:30:12;93;;;37;;
6951;SDS011;3515;50.138;8.502;2022-08-06T10:32:41;92;;;36;;
6951;SDS011;3515;50.138;8.502;2022-08-06T10:35:04;90;;;35;;
6951;SDS011;3515;50.138;8.502;2022-08-06T10:37:28;93;;;36;;
6951;SDS011;3515;50.138;8.502;2022-08-06T10:39:55;90;;;35;;
6951;SDS011;3515;50.138;8.502;2022-08-06T10:42:19;105;;;42;;
6951;SDS011;3515;50.138;8.502;2022-08-06T10:44:44;104;;;42;;
6951;SDS011;3515;50.138;8.502;2022-08-06T10:47:10;104;;;42;;
6951;SDS011;3515;50.138;8.502;2022-08-06T10:49:35;103;;;42;;
6951;SDS011;3515;50.138;8.502;2022-08-06T10:52:00;105;;;42;;
6951;SDS011;3515;50.138;8.502;2022-08-06T10:54:26;106;;;43;;
6951;SDS011;3515;50.138;8.502;2022-08-06T10:56:51;108;;;44;;
6951;SDS011;3515;50.138;8.502;2022-08-06T10:59:16;124;;;51;;
6951;SDS011;3515;50.138;8.502;2022-08-06T11:01:44;114;;;46;;
6951;SDS011;3515;50.138;8.502;2022-08-06T11:04:13;115;;;46;;
6951;SDS011;3515;50.138;8.502;2022-08-06T11:06:41;113;;;46;;
6951;SDS011;3515;50.138;8.502;2022-08-06T11:09:02;104;;;41;;
6951;SDS011;3515;50.138;8.502;2022-08-06T11:11:29;107;;;42;;
6951;SDS011;3515;50.138;8.502;2022-08-06T11:14:02;110;;;43;;
6951;SDS011;3515;50.138;8.502;2022-08-06T11:16:25;119;;;48;;
6951;SDS011;3515;50.138;8.502;2022-08-06T11:21:07;104;;;41;;
6951;SDS011;3515;50.138;8.502;2022-08-06T11:23:33;101;;;40;;
6951;SDS011;3515;50.138;8.502;2022-08-06T11:25:59;105;;;42;;
6951;SDS011;3515;50.138;8.502;2022-08-06T11:30:49;97;;;39;;
6951;SDS011;3515;50.138;8.502;2022-08-06T11:33:14;96;;;39;;
6951;SDS011;3515;50.138;8.502;2022-08-06T11:35:40;83;;;33;;
6951;SDS011;3515;50.138;8.502;2022-08-06T11:38:05;93;;;37;;
6951;SDS011;3515;50.138;8.502;2022-08-06T11:43:02;87;;;36;;
6951;SDS011;3515;50.138;8.502;2022-08-06T11:45:25;94;;;39;;
6951;SDS011;3515;50.138;8.502;2022-08-06T11:50:22;90;;;38;;
6951;SDS011;3515;50.138;8.502;2022-08-06T11:52:41;96;;;40;;
6951;SDS011;3515;50.138;8.502;2022-08-06T11:55:08;102;;;43;;
6951;SDS011;3515;50.138;8.502;2022-08-06T11:57:32;90;;;38;;
6951;SDS011;3515;50.138;8.502;2022-08-06T12:04:48;86;;;36;;
6951;SDS011;3515;50.138;8.502;2022-08-06T12:07:16;85;;;36;;
6951;SDS011;3515;50.138;8.502;2022-08-06T12:09:38;87;;;37;;
6951;SDS011;3515;50.138;8.502;2022-08-06T12:14:40;73;;;32;;
6951;SDS011;3515;50.138;8.502;2022-08-06T12:16:56;75;;;33;;
6951;SDS011;3515;50.138;8.502;2022-08-06T12:19:21;77;;;34;;
6951;SDS011;3515;50.138;8.502;2022-08-06T12:21:50;78;;;34;;
6951;SDS011;3515;50.138;8.502;2022-08-06T12:24:12;87;;;37;;
6951;SDS011;3515;50.138;8.502;2022-08-06T12:26:38;86;;;37;;
6951;SDS011;3515;50.138;8.502;2022-08-06T12:29:03;83;;;36;;
6951;SDS011;3515;50.138;8.502;2022-08-06T12:31:29;80;;;35;;
6951;SDS011;3515;50.138;8.502;2022-08-06T12:33:53;85;;;37;;
6951;SDS011;3515;50.138;8.502;2022-08-06T12:36:19;82;;;35;;
6951;SDS011;3515;50.138;8.502;2022-08-06T12:38:44;87;;;37;;
6951;SDS011;3515;50.138;8.502;2022-08-06T12:41:09;76;;;33;;
6951;SDS011;3515;50.138;8.502;2022-08-06T12:43:35;65;;;29;;
6951;SDS011;3515;50.138;8.502;2022-08-06T12:46:01;63;;;29;;
6951;SDS011;3515;50.138;8.502;2022-08-06T12:48:25;62;;;28;;
6951;SDS011;3515;50.138;8.502;2022-08-06T12:51:00;62;;;28;;
6951;SDS011;3515;50.138;8.502;2022-08-06T12:53:17;54;;;26;;
6951;SDS011;3515;50.138;8.502;2022-08-06T12:55:42;54;;;26;;
6951;SDS011;3515;50.138;8.502;2022-08-06T12:58:06;46;;;23;;
6951;SDS011;3515;50.138;8.502;2022-08-06T13:00:32;45;;;23;;
6951;SDS011;3515;50.138;8.502;2022-08-06T13:02:57;46;;;23;;
6951;SDS011;3515;50.138;8.502;2022-08-06T13:05:23;47;;;24;;
6951;SDS011;3515;50.138;8.502;2022-08-06T13:07:47;48;;;24;;
6951;SDS011;3515;50.138;8.502;2022-08-06T13:10:13;48;;;24;;
6951;SDS011;3515;50.138;8.502;2022-08-06T13:12:38;48;;;24;;
6951;SDS011;3515;50.138;8.502;2022-08-06T13:15:16;48;;;24;;
6951;SDS011;3515;50.138;8.502;2022-08-06T13:17:29;51;;;25;;
6951;SDS011;3515;50.138;8.502;2022-08-06T13:19:55;52;;;25;;
6951;SDS011;3515;50.138;8.502;2022-08-06T13:22:19;52;;;25;;
6951;SDS011;3515;50.138;8.502;2022-08-06T13:24:44;51;;;25;;
6951;SDS011;3515;50.138;8.502;2022-08-06T13:27:10;51;;;25;;
6951;SDS011;3515;50.138;8.502;2022-08-06T13:29:35;52;;;25;;
6951;SDS011;3515;50.138;8.502;2022-08-06T13:32:01;52;;;25;;
6951;SDS011;3515;50.138;8.502;2022-08-06T13:34:25;53;;;25;;
6951;SDS011;3515;50.138;8.502;2022-08-06T13:36:52;50;;;25;;
6951;SDS011;3515;50.138;8.502;2022-08-06T13:39:17;49;;;24;;
6951;SDS011;3515;50.138;8.502;2022-08-06T13:41:41;49;;;24;;
6951;SDS011;3515;50.138;8.502;2022-08-06T13:44:07;57;;;27;;
6951;SDS011;3515;50.138;8.502;2022-08-06T13:46:32;66;;;30;;
6951;SDS011;3515;50.138;8.502;2022-08-06T13:48:58;66;;;30;;
6951;SDS011;3515;50.138;8.502;2022-08-06T13:51:22;67;;;30;;
6951;SDS011;3515;50.138;8.502;2022-08-06T13:53:48;75;;;33;;
6951;SDS011;3515;50.138;8.502;2022-08-06T13:56:13;75;;;33;;
6951;SDS011;3515;50.138;8.502;2022-08-06T13:58:38;74;;;33;;
6951;SDS011;3515;50.138;8.502;2022-08-06T14:01:04;74;;;32;;
6951;SDS011;3515;50.138;8.502;2022-08-06T14:03:29;68;;;31;;
6951;SDS011;3515;50.138;8.502;2022-08-06T14:05:54;67;;;30;;
6951;SDS011;3515;50.138;8.502;2022-08-06T14:08:20;68;;;31;;
6951;SDS011;3515;50.138;8.502;2022-08-06T14:10:45;68;;;31;;
6951;SDS011;3515;50.138;8.502;2022-08-06T14:13:10;61;;;28;;
6951;SDS011;3515;50.138;8.502;2022-08-06T14:15:36;63;;;29;;
6951;SDS011;3515;50.138;8.502;2022-08-06T14:18:01;64;;;30;;
6951;SDS011;3515;50.138;8.502;2022-08-06T14:20:26;65;;;30;;
6951;SDS011;3515;50.138;8.502;2022-08-06T14:22:52;62;;;29;;
6951;SDS011;3515;50.138;8.502;2022-08-06T14:25:17;54;;;26;;
6951;SDS011;3515;50.138;8.502;2022-08-06T14:27:42;52;;;25;;
6951;SDS011;3515;50.138;8.502;2022-08-06T14:30:08;52;;;25;;
6951;SDS011;3515;50.138;8.502;2022-08-06T14:32:32;52;;;25;;
6951;SDS011;3515;50.138;8.502;2022-08-06T14:34:58;50;;;24;;
6951;SDS011;3515;50.138;8.502;2022-08-06T14:37:23;50;;;24;;
6951;SDS011;3515;50.138;8.502;2022-08-06T14:39:48;50;;;24;;
6951;SDS011;3515;50.138;8.502;2022-08-06T14:42:13;51;;;24;;
6951;SDS011;3515;50.138;8.502;2022-08-06T14:44:39;51;;;24;;
6951;SDS011;3515;50.138;8.502;2022-08-06T14:47:04;50;;;24;;
6951;SDS011;3515;50.138;8.502;2022-08-06T14:49:29;49;;;24;;
6951;SDS011;3515;50.138;8.502;2022-08-06T14:51:54;48;;;23;;
6951;SDS011;3515;50.138;8.502;2022-08-06T14:54:20;47;;;24;;
6951;SDS011;3515;50.138;8.502;2022-08-06T14:56:45;46;;;23;;
6951;SDS011;3515;50.138;8.502;2022-08-06T14:59:10;45;;;23;;
6951;SDS011;3515;50.138;8.502;2022-08-06T15:01:36;53;;;26;;
6951;SDS011;3515;50.138;8.502;2022-08-06T15:04:02;53;;;26;;
6951;SDS011;3515;50.138;8.502;2022-08-06T15:06:28;54;;;26;;
6951;SDS011;3515;50.138;8.502;2022-08-06T15:08:53;55;;;26;;
6951;SDS011;3515;50.138;8.502;2022-08-06T15:11:18;56;;;27;;
6951;SDS011;3515;50.138;8.502;2022-08-06T15:13:43;56;;;27;;
6951;SDS011;3515;50.138;8.502;2022-08-06T15:16:09;56;;;27;;
6951;SDS011;3515;50.138;8.502;2022-08-06T15:18:34;56;;;27;;
6951;SDS011;3515;50.138;8.502;2022-08-06T15:20:59;56;;;27;;
6951;SDS011;3515;50.138;8.502;2022-08-06T15:23:25;56;;;27;;
6951;SDS011;3515;50.138;8.502;2022-08-06T15:25:50;64;;;29;;
6951;SDS011;3515;50.138;8.502;2022-08-06T15:28:15;65;;;30;;
6951;SDS011;3515;50.138;8.502;2022-08-06T15:30:41;65;;;30;;
6951;SDS011;3515;50.138;8.502;2022-08-06T15:33:06;64;;;29;;
6951;SDS011;3515;50.138;8.502;2022-08-06T15:35:36;64;;;29;;
6951;SDS011;3515;50.138;8.502;2022-08-06T15:38:01;64;;;29;;
6951;SDS011;3515;50.138;8.502;2022-08-06T15:40:26;57;;;26;;
6951;SDS011;3515;50.138;8.502;2022-08-06T15:42:51;55;;;26;;
6951;SDS011;3515;50.138;8.502;2022-08-06T15:45:17;47;;;23;;
6951;SDS011;3515;50.138;8.502;2022-08-06T15:47:43;45;;;22;;
6951;SDS011;3515;50.138;8.502;2022-08-06T15:50:07;45;;;22;;
6951;SDS011;3515;50.138;8.502;2022-08-06T15:52:33;43;;;21;;
6951;SDS011;3515;50.138;8.502;2022-08-06T15:54:58;44;;;21;;
6951;SDS011;3515;50.138;8.502;2022-08-06T15:57:23;43;;;21;;
6951;SDS011;3515;50.138;8.502;2022-08-06T15:59:48;43;;;21;;
6951;SDS011;3515;50.138;8.502;2022-08-06T16:02:13;44;;;21;;
6951;SDS011;3515;50.138;8.502;2022-08-06T16:04:39;43;;;21;;
6951;SDS011;3515;50.138;8.502;2022-08-06T16:07:07;43;;;21;;
6951;SDS011;3515;50.138;8.502;2022-08-06T16:09:33;43;;;21;;
6951;SDS011;3515;50.138;8.502;2022-08-06T16:11:57;44;;;21;;
6951;SDS011;3515;50.138;8.502;2022-08-06T16:14:23;43;;;21;;
6951;SDS011;3515;50.138;8.502;2022-08-06T16:16:48;45;;;22;;
6951;SDS011;3515;50.138;8.502;2022-08-06T16:19:13;45;;;22;;
6951;SDS011;3515;50.138;8.502;2022-08-06T16:21:38;45;;;22;;
6951;SDS011;3515;50.138;8.502;2022-08-06T16:24:04;46;;;23;;
6951;SDS011;3515;50.138;8.502;2022-08-06T16:26:29;46;;;23;;
6951;SDS011;3515;50.138;8.502;2022-08-06T16:28:54;54;;;26;;
6951;SDS011;3515;50.138;8.502;2022-08-06T16:31:20;54;;;26;;
6951;SDS011;3515;50.138;8.502;2022-08-06T16:33:45;63;;;29;;